createdAt,value
2018-09-26T00:00:32.623Z,99889.87
2018-09-26T00:03:08.712Z,99883.95
2018-09-26T00:05:36.530Z,99885.73
2018-09-26T00:08:04.314Z,99888.48
2018-09-26T00:10:32.127Z,99892.82
2018-09-26T00:12:59.902Z,99888.67
2018-09-26T00:15:27.586Z,99882.39
2018-09-26T00:17:55.516Z,99878.86
2018-09-26T00:20:23.214Z,99873.93
2018-09-26T00:22:51.054Z,99875.30
2018-09-26T00:25:18.711Z,99876.28
2018-09-26T00:27:46.414Z,99881.56
2018-09-26T00:30:14.230Z,99876.24
2018-09-26T00:32:41.981Z,99872.52
2018-09-26T00:35:09.734Z,99879.39
2018-09-26T00:37:37.540Z,99882.34
2018-09-26T00:40:05.801Z,99876.44
2018-09-26T00:42:33.565Z,99885.09
2018-09-26T00:45:01.372Z,99887.08
2018-09-26T00:47:29.246Z,99882.76
2018-09-26T00:49:56.992Z,99888.28
2018-09-26T00:52:24.748Z,99892.22
2018-09-26T00:54:52.466Z,99884.34
2018-09-26T00:57:20.149Z,99883.38
2018-09-26T00:59:47.873Z,99885.33
2018-09-26T01:02:15.535Z,99881.00
2018-09-26T01:04:43.292Z,99880.83
2018-09-26T01:07:11.204Z,99873.36
2018-09-26T01:09:38.937Z,99867.84
2018-09-26T01:12:06.675Z,99874.33
2018-09-26T01:14:34.486Z,99870.42
2018-09-26T01:17:02.189Z,99873.17
2018-09-26T01:19:29.940Z,99877.47
2018-09-26T01:21:59.898Z,99870.61
2018-09-26T01:24:27.743Z,99877.67
2018-09-26T01:26:55.565Z,99875.31
2018-09-26T01:29:23.301Z,99872.56
2018-09-26T01:31:51.049Z,99866.08
2018-09-26T01:34:18.735Z,99876.30
2018-09-26T01:36:46.411Z,99881.80
2018-09-26T01:39:14.222Z,99879.45
2018-09-26T01:41:41.972Z,99875.70
2018-09-26T01:44:09.752Z,99870.81
2018-09-26T01:46:37.450Z,99869.04
2018-09-26T01:49:05.277Z,99862.73
2018-09-26T01:51:33.073Z,99856.45
2018-09-26T01:54:00.765Z,99860.00
2018-09-26T01:56:28.542Z,99853.11
2018-09-26T01:58:56.300Z,99853.88
2018-09-26T02:01:25.650Z,99849.35
2018-09-26T02:03:53.509Z,99846.99
2018-09-26T02:06:21.289Z,99845.62
2018-09-26T02:08:49.024Z,99848.77
2018-09-26T02:11:16.840Z,99841.48
2018-09-26T02:13:44.589Z,99835.38
2018-09-26T02:16:12.385Z,99833.03
2018-09-26T02:18:40.095Z,99833.83
2018-09-26T02:21:07.917Z,99821.05
2018-09-26T02:23:35.697Z,99821.43
2018-09-26T02:26:03.425Z,99818.28
2018-09-26T02:28:31.215Z,99812.58
2018-09-26T02:30:58.984Z,99815.14
2018-09-26T02:33:26.782Z,99809.85
2018-09-26T02:35:54.530Z,99806.71
2018-09-26T02:38:22.220Z,99794.74
2018-09-26T02:40:49.919Z,99801.41
2018-09-26T02:43:17.826Z,99807.50
2018-09-26T02:45:45.580Z,99801.98
2018-09-26T02:48:18.762Z,99801.60
2018-09-26T02:50:46.560Z,99795.70
2018-09-26T02:53:14.275Z,99794.72
2018-09-26T02:55:42.072Z,99787.27
2018-09-26T02:58:09.738Z,99788.23
2018-09-26T03:00:37.497Z,99779.98
2018-09-26T03:03:05.388Z,99788.43
2018-09-26T03:05:33.140Z,99780.78
2018-09-26T03:08:00.900Z,99774.09
2018-09-26T03:10:28.689Z,99777.84
2018-09-26T03:12:56.484Z,99773.33
2018-09-26T03:15:24.966Z,99772.34
2018-09-26T03:17:53.009Z,99783.94
2018-09-26T03:20:20.777Z,99778.23
2018-09-26T03:22:48.562Z,99774.70
2018-09-26T03:25:16.334Z,99769.20
2018-09-26T03:27:44.118Z,99766.84
2018-09-26T03:30:11.869Z,99762.90
2018-09-26T03:32:39.689Z,99761.14
2018-09-26T03:35:07.434Z,99774.50
2018-09-26T03:37:35.148Z,99764.10
2018-09-26T03:40:02.898Z,99753.67
2018-09-26T03:42:30.621Z,99746.61
2018-09-26T03:44:58.378Z,99745.63
2018-09-26T03:47:26.289Z,99747.58
2018-09-26T03:49:54.024Z,99750.14
2018-09-26T03:52:21.780Z,99746.61
2018-09-26T03:54:49.580Z,99740.13
2018-09-26T03:57:17.285Z,99739.15
2018-09-26T03:59:44.987Z,99737.96
2018-09-26T04:02:12.850Z,99746.42
2018-09-26T04:04:40.580Z,99741.48
2018-09-26T04:07:08.254Z,99741.70
2018-09-26T04:09:35.954Z,99751.13
2018-09-26T04:12:03.737Z,99753.08
2018-09-26T04:14:31.446Z,99749.76
2018-09-26T04:16:59.155Z,99752.52
2018-09-26T04:19:26.910Z,99753.67
2018-09-26T04:21:54.720Z,99754.86
2018-09-26T04:24:22.498Z,99765.66
2018-09-26T04:26:50.518Z,99763.30
2018-09-26T04:29:17.965Z,99764.67
2018-09-26T04:31:45.673Z,99770.19
2018-09-26T04:34:13.441Z,99770.38
2018-09-26T04:36:41.206Z,99759.96
2018-09-26T04:39:10.512Z,99760.55
2018-09-26T04:41:38.259Z,99759.19
2018-09-26T04:44:05.981Z,99755.27
2018-09-26T04:46:33.808Z,99756.23
2018-09-26T04:49:01.578Z,99747.58
2018-09-26T04:51:29.513Z,99738.56
2018-09-26T04:53:57.198Z,99753.88
2018-09-26T04:56:25.006Z,99756.04
2018-09-26T04:58:52.769Z,99750.52
2018-09-26T05:01:20.541Z,99745.62
2018-09-26T05:03:48.288Z,99750.53
2018-09-26T05:06:16.094Z,99746.02
2018-09-26T05:08:44.248Z,99743.45
2018-09-26T05:11:12.135Z,99732.84
2018-09-26T05:13:40.267Z,99728.91
2018-09-26T05:16:07.959Z,99730.09
2018-09-26T05:18:35.840Z,99725.78
2018-09-26T05:21:03.709Z,99728.52
2018-09-26T05:23:31.615Z,99735.00
2018-09-26T05:25:59.569Z,99736.94
2018-09-26T05:28:27.416Z,99731.03
2018-09-26T05:30:55.497Z,99736.12
2018-09-26T05:33:23.477Z,99735.08
2018-09-26T05:35:51.334Z,99744.67
2018-09-26T05:38:19.345Z,99738.77
2018-09-26T05:40:47.177Z,99738.97
2018-09-26T05:43:15.174Z,99740.89
2018-09-26T05:45:43.341Z,99744.58
2018-09-26T05:48:11.243Z,99746.55
2018-09-26T05:50:39.194Z,99739.85
2018-09-26T05:53:10.396Z,99739.27
2018-09-26T05:55:39.221Z,99737.47
2018-09-26T05:58:08.995Z,99731.36
2018-09-26T06:00:40.957Z,99729.03
2018-09-26T06:03:11.878Z,99724.70
2018-09-26T06:05:39.744Z,99707.22
2018-09-26T06:08:14.828Z,99701.73
2018-09-26T06:10:46.776Z,99708.98
2018-09-26T06:13:14.738Z,99699.94
2018-09-26T06:15:42.497Z,99711.87
2018-09-26T06:18:10.334Z,99716.94
2018-09-26T06:20:38.540Z,99714.66
2018-09-26T06:23:08.942Z,99707.25
2018-09-26T06:25:37.139Z,99707.73
2018-09-26T06:28:05.084Z,99710.73
2018-09-26T06:30:32.901Z,99713.19
2018-09-26T06:33:01.800Z,99711.45
2018-09-26T06:35:34.211Z,99705.93
2018-09-26T06:38:06.353Z,99704.56
2018-09-26T06:40:35.247Z,99698.51
2018-09-26T06:43:03.002Z,99699.16
2018-09-26T06:45:37.376Z,99693.45
2018-09-26T06:48:07.018Z,99698.13
2018-09-26T06:50:34.903Z,99696.75
2018-09-26T06:53:02.742Z,99693.55
2018-09-26T06:55:31.674Z,99690.73
2018-09-26T06:58:01.420Z,99691.14
2018-09-26T07:00:29.392Z,99691.80
2018-09-26T07:02:58.185Z,99688.02
2018-09-26T07:05:28.010Z,99690.58
2018-09-26T07:08:05.003Z,99687.84
2018-09-26T07:10:46.182Z,99692.04
2018-09-26T07:13:29.325Z,99690.31
2018-09-26T07:15:57.195Z,99693.77
2018-09-26T07:18:30.159Z,99694.75
2018-09-26T07:20:58.096Z,99684.50
2018-09-26T07:23:26.316Z,99680.69
2018-09-26T07:25:56.555Z,99673.84
2018-09-26T07:28:29.242Z,99682.52
2018-09-26T07:31:01.341Z,99689.80
2018-09-26T07:33:36.331Z,99697.41
2018-09-26T07:38:52.861Z,99699.98
2018-09-26T07:41:21.020Z,99698.47
2018-09-26T07:43:49.125Z,99698.98
2018-09-26T07:46:17.207Z,99697.45
2018-09-26T07:48:45.177Z,99708.34
2018-09-26T07:51:13.249Z,99704.17
2018-09-26T07:53:41.310Z,99702.61
2018-09-26T08:03:07.147Z,99706.55
2018-09-26T08:05:35.303Z,99709.83
2018-09-26T08:08:03.480Z,99693.55
2018-09-26T08:10:31.449Z,99700.77
2018-09-26T08:12:59.458Z,99703.33
2018-09-26T08:15:27.285Z,99701.49
2018-09-26T08:17:55.650Z,99691.77
2018-09-26T08:20:23.832Z,99689.28
2018-09-26T08:22:51.712Z,99679.98
2018-09-26T08:25:19.572Z,99678.99
2018-09-26T08:27:47.622Z,99678.83
2018-09-26T08:30:15.624Z,99679.67
2018-09-26T08:32:43.594Z,99676.84
2018-09-26T08:35:11.981Z,99663.61
2018-09-26T08:37:39.864Z,99656.14
2018-09-26T08:40:07.954Z,99663.03
2018-09-26T08:42:35.958Z,99661.39
2018-09-26T08:45:03.961Z,99657.63
2018-09-26T08:47:31.865Z,99645.70
2018-09-26T08:49:59.818Z,99642.52
2018-09-26T08:52:27.793Z,99635.34
2018-09-26T08:54:55.939Z,99638.15
2018-09-26T08:57:23.729Z,99636.58
2018-09-26T08:59:51.684Z,99645.23
2018-09-26T09:02:19.615Z,99630.06
2018-09-26T09:04:48.071Z,99641.59
2018-09-26T09:07:16.308Z,99642.16
2018-09-26T09:09:44.155Z,99640.27
2018-09-26T09:12:12.081Z,99629.67
2018-09-26T09:14:40.099Z,99621.26
2018-09-26T09:17:07.863Z,99608.82
2018-09-26T09:19:35.814Z,99612.17
2018-09-26T09:22:03.831Z,99613.80
2018-09-26T09:24:31.797Z,99600.77
2018-09-26T09:26:59.862Z,99599.09
2018-09-26T09:29:27.905Z,99593.33
2018-09-26T09:31:55.802Z,99590.77
2018-09-26T09:34:23.760Z,99589.08
2018-09-26T09:36:51.743Z,99595.11
2018-09-26T09:39:19.810Z,99593.17
2018-09-26T09:41:47.746Z,99601.91
2018-09-26T09:44:15.577Z,99602.52
2018-09-26T09:46:43.540Z,99602.09
2018-09-26T09:49:11.370Z,99603.20
2018-09-26T09:51:39.837Z,99603.11
2018-09-26T09:54:07.870Z,99597.67
2018-09-26T09:56:36.025Z,99588.17
2018-09-26T09:59:04.325Z,99587.95
2018-09-26T10:01:32.209Z,99588.08
2018-09-26T10:04:00.538Z,99588.46
2018-09-26T10:06:29.083Z,99589.30
2018-09-26T10:08:57.293Z,99586.98
2018-09-26T10:11:25.312Z,99585.88
2018-09-26T10:13:53.168Z,99577.36
2018-09-26T10:16:21.192Z,99578.12
2018-09-26T10:18:49.034Z,99573.33
2018-09-26T10:21:17.017Z,99572.11
2018-09-26T10:23:45.094Z,99573.38
2018-09-26T10:26:13.041Z,99568.00
2018-09-26T10:28:41.312Z,99562.27
2018-09-26T10:31:09.429Z,99558.33
2018-09-26T10:33:37.467Z,99557.71
2018-09-26T10:36:05.344Z,99557.48
2018-09-26T10:38:33.235Z,99551.93
2018-09-26T10:41:01.224Z,99546.20
2018-09-26T10:43:29.064Z,99545.27
2018-09-26T10:45:57.163Z,99536.16
2018-09-26T10:48:25.107Z,99539.11
2018-09-26T10:50:52.979Z,99538.20
2018-09-26T10:53:20.904Z,99528.27
2018-09-26T10:55:48.750Z,99527.97
2018-09-26T10:58:16.594Z,99534.97
2018-09-26T11:00:44.494Z,99533.61
2018-09-26T11:03:12.352Z,99523.52
2018-09-26T11:05:40.267Z,99524.16
2018-09-26T11:08:08.589Z,99512.73
2018-09-26T11:10:36.686Z,99507.58
2018-09-26T11:13:04.873Z,99502.31
2018-09-26T11:15:32.749Z,99504.63
2018-09-26T11:18:00.687Z,99495.15
2018-09-26T11:20:28.898Z,99497.37
2018-09-26T11:22:57.115Z,99495.17
2018-09-26T11:25:25.033Z,99496.88
2018-09-26T11:27:53.094Z,99496.53
2018-09-26T11:30:21.125Z,99483.88
2018-09-26T11:32:48.960Z,99489.01
2018-09-26T11:35:16.832Z,99481.65
2018-09-26T11:37:44.756Z,99478.52
2018-09-26T11:40:12.966Z,99475.55
2018-09-26T11:42:40.954Z,99468.58
2018-09-26T11:45:08.965Z,99461.52
2018-09-26T11:47:37.194Z,99459.16
2018-09-26T11:50:05.308Z,99457.80
2018-09-26T11:52:33.408Z,99446.70
2018-09-26T11:55:01.469Z,99442.35
2018-09-26T11:57:29.602Z,99441.66
2018-09-26T11:59:57.720Z,99442.61
2018-09-26T12:02:25.835Z,99436.33
2018-09-26T12:04:53.672Z,99447.36
2018-09-26T12:07:21.553Z,99443.03
2018-09-26T12:09:49.525Z,99436.62
2018-09-26T12:12:17.619Z,99438.36
2018-09-26T12:14:45.452Z,99436.43
2018-09-26T12:17:13.390Z,99427.47
2018-09-26T12:19:41.297Z,99431.81
2018-09-26T12:22:09.327Z,99430.49
2018-09-26T12:24:37.324Z,99431.95
2018-09-26T12:27:05.435Z,99431.59
2018-09-26T12:29:33.389Z,99432.34
2018-09-26T12:32:01.337Z,99420.66
2018-09-26T12:34:29.600Z,99410.95
2018-09-26T12:36:57.620Z,99402.93
2018-09-26T12:39:25.456Z,99399.33
2018-09-26T12:41:53.474Z,99393.07
2018-09-26T12:44:21.317Z,99389.70
2018-09-26T12:46:49.287Z,99389.16
2018-09-26T12:49:17.185Z,99389.89
2018-09-26T12:51:45.098Z,99393.67
2018-09-26T12:54:13.619Z,99390.11
2018-09-26T12:56:41.631Z,99384.00
2018-09-26T12:59:09.455Z,99380.24
2018-09-26T13:01:37.432Z,99390.19
2018-09-26T13:04:05.700Z,99380.67
2018-09-26T13:06:33.602Z,99379.41
2018-09-26T13:09:01.565Z,99373.53
2018-09-26T13:11:29.454Z,99378.97
2018-09-26T13:13:57.414Z,99371.35
2018-09-26T13:16:25.473Z,99369.87
2018-09-26T13:18:53.743Z,99362.83
2018-09-26T13:21:21.502Z,99362.13
2018-09-26T13:23:49.554Z,99362.17
2018-09-26T13:26:17.478Z,99351.70
2018-09-26T13:28:45.334Z,99358.80
2018-09-26T13:31:13.317Z,99348.98
2018-09-26T13:33:41.209Z,99352.18
2018-09-26T13:36:09.229Z,99352.23
2018-09-26T13:38:37.014Z,99347.56
2018-09-26T13:41:05.121Z,99342.08
2018-09-26T13:43:33.246Z,99334.67
2018-09-26T13:46:01.538Z,99333.85
2018-09-26T13:48:29.493Z,99338.22
2018-09-26T13:50:57.612Z,99338.19
2018-09-26T13:53:25.587Z,99342.23
2018-09-26T13:55:53.489Z,99329.00
2018-09-26T13:58:21.361Z,99329.87
2018-09-26T14:00:49.182Z,99323.52
2018-09-26T14:03:17.195Z,99331.92
2018-09-26T14:05:45.126Z,99328.38
2018-09-26T14:08:12.999Z,99332.30
2018-09-26T14:10:40.925Z,99321.64
2018-09-26T14:13:08.748Z,99317.09
2018-09-26T14:15:36.890Z,99319.06
2018-09-26T14:18:05.158Z,99316.88
2018-09-26T14:20:32.951Z,99325.75
2018-09-26T14:23:00.871Z,99313.73
2018-09-26T14:25:29.041Z,99315.12
2018-09-26T14:27:56.911Z,99306.90
2018-09-26T14:30:25.183Z,99304.06
2018-09-26T14:32:53.141Z,99295.03
2018-09-26T14:35:21.427Z,99288.27
2018-09-26T14:37:49.274Z,99290.14
2018-09-26T14:40:17.251Z,99287.17
2018-09-26T14:42:45.172Z,99278.20
2018-09-26T14:45:13.329Z,99276.02
2018-09-26T14:47:41.481Z,99270.16
2018-09-26T14:50:09.447Z,99264.69
2018-09-26T14:52:37.436Z,99266.96
2018-09-26T14:55:05.430Z,99265.46
2018-09-26T14:57:33.620Z,99258.05
2018-09-26T15:00:01.443Z,99270.07
2018-09-26T15:02:29.529Z,99266.67
2018-09-26T15:04:57.974Z,99265.22
2018-09-26T15:07:26.093Z,99255.34
2018-09-26T15:09:54.153Z,99248.52
2018-09-26T15:12:22.134Z,99248.52
2018-09-26T15:14:49.991Z,99243.59
2018-09-26T15:17:17.879Z,99250.44
2018-09-26T15:19:45.789Z,99238.23
2018-09-26T15:22:13.713Z,99229.11
2018-09-26T15:24:41.571Z,99229.03
2018-09-26T15:27:09.492Z,99231.22
2018-09-26T15:29:37.317Z,99239.41
2018-09-26T15:32:05.477Z,99240.07
2018-09-26T15:34:33.181Z,99241.34
2018-09-26T15:37:00.904Z,99239.58
2018-09-26T15:42:27.155Z,99230.79
2018-09-26T20:58:53.700Z,99240.13
2018-09-26T21:04:39.655Z,99241.11
2018-09-26T21:07:08.280Z,99237.16
2018-09-26T21:09:36.841Z,99240.32
2018-09-26T21:12:05.608Z,99247.82
2018-09-26T21:14:34.154Z,99242.56
2018-09-26T21:17:02.722Z,99250.78
2018-09-26T21:19:31.425Z,99253.91
2018-09-26T21:22:00.269Z,99253.34
2018-09-26T21:24:28.940Z,99257.62
2018-09-26T21:26:57.756Z,99263.73
2018-09-26T21:29:26.701Z,99269.23
2018-09-26T21:31:56.209Z,99269.19
2018-09-26T21:36:54.593Z,99271.98
2018-09-26T21:39:22.278Z,99263.84
2018-09-26T21:41:50.051Z,99259.43
2018-09-26T21:44:17.790Z,99265.84
2018-09-26T21:46:45.492Z,99270.45
2018-09-26T21:49:13.175Z,99269.80
2018-09-26T21:51:40.855Z,99271.77
2018-09-26T21:54:08.575Z,99270.16
2018-09-26T21:56:36.301Z,99270.30
2018-09-26T21:59:04.036Z,99270.86
2018-09-26T22:01:31.956Z,99280.17
2018-09-26T22:03:59.840Z,99279.86
2018-09-26T22:06:27.606Z,99283.12
2018-09-26T22:08:55.388Z,99283.97
2018-09-26T22:11:23.368Z,99279.91
2018-09-26T22:13:51.098Z,99278.58
2018-09-26T22:16:18.829Z,99273.48
2018-09-26T22:18:46.537Z,99279.38
2018-09-26T22:21:14.201Z,99274.44
2018-09-26T22:23:41.904Z,99271.98
2018-09-26T22:26:09.710Z,99268.55
2018-09-26T22:28:37.483Z,99266.09
2018-09-26T22:31:05.220Z,99277.66
2018-09-26T22:33:32.906Z,99267.33
2018-09-26T22:36:00.685Z,99274.63
2018-09-26T22:38:28.382Z,99269.38
2018-09-26T22:40:56.272Z,99280.86
2018-09-26T22:43:23.954Z,99275.43
2018-09-26T22:45:51.689Z,99273.17
2018-09-26T22:48:19.596Z,99271.34
2018-09-26T22:50:47.360Z,99266.34
2018-09-26T22:53:15.179Z,99271.78
2018-09-26T22:55:42.892Z,99271.80
2018-09-26T22:58:10.590Z,99275.36
2018-09-26T23:00:38.283Z,99270.13
2018-09-26T23:03:06.142Z,99272.92
2018-09-26T23:05:33.828Z,99263.05
2018-09-26T23:08:01.546Z,99264.44
2018-09-26T23:10:29.260Z,99266.00
2018-09-26T23:12:56.966Z,99265.07
2018-09-26T23:15:24.788Z,99264.61
2018-09-26T23:17:52.570Z,99263.98
2018-09-26T23:20:20.370Z,99262.27
2018-09-26T23:22:48.106Z,99259.48
2018-09-26T23:25:15.843Z,99263.05
2018-09-26T23:27:43.514Z,99259.33
2018-09-26T23:30:11.222Z,99258.38
2018-09-26T23:32:38.969Z,99255.56
2018-09-26T23:35:06.707Z,99258.31
2018-09-26T23:37:34.412Z,99254.53
2018-09-26T23:40:02.120Z,99260.42
2018-09-26T23:42:29.799Z,99253.30
2018-09-26T23:44:57.481Z,99256.41
2018-09-26T23:47:26.145Z,99249.89
2018-09-26T23:49:53.825Z,99239.97
2018-09-26T23:52:21.567Z,99227.73
2018-09-26T23:54:49.715Z,99228.18
2018-09-26T23:57:17.381Z,99225.27
2018-09-26T23:59:45.116Z,99212.91
